Mestre Silva — CUFZ5 — position and weather

sailwx.info

Track history (hours):
 
Tides and Currents Weather Stations Pressure Air Temp Water Temp Dewpoint Dewpoint Depression Visibility Wind Speed Wind Dir Waves Ship Positions

Mestre Silva

Last reported at 2018-Aug-20 16:29 UTC. Time now 2018-Aug-20 16:47 UTC.
Position N 41°11' W 008°42'.

Length 12 m.

Type: Fishing. MMSI: 263420860.

Date/timePositionNaut miles runAvg speedWind from/ knotsBaromVisibWave heightAir tempDewpointWater temp
2018-Aug-20 16:29N 41°11' W 008°42'0 0.0
2018-Aug-20 16:03N 41°11' W 008°42'0 0.0
2018-Aug-20 16:00N 41°11' W 008°42'0 0.0
2018-Aug-20 15:29N 41°11' W 008°42'0 0.0
2018-Aug-20 15:03N 41°11' W 008°42'0 0.0
2018-Aug-20 15:00N 41°11' W 008°42'0 0.1
2018-Aug-20 14:30N 41°11' W 008°42'3 5.6
2018-Aug-20 13:55N 41°08' W 008°44'3 0.2
2018-Aug-19 20:29N 41°06' W 008°46'4 7.3
2018-Aug-19 20:00N 41°09' W 008°43'  
2018-Aug-17 11:48N 41°11' W 008°42'0 0.0
2018-Aug-17 11:30N 41°11' W 008°42'0 0.0
2018-Aug-17 11:00N 41°11' W 008°42'0 0.0
2018-Aug-17 10:30N 41°11' W 008°42'0 0.0
2018-Aug-17 10:00N 41°11' W 008°42'0 0.0
2018-Aug-17 09:30N 41°11' W 008°42'0 0.0
2018-Aug-17 09:00N 41°11' W 008°42'0 0.0
2018-Aug-17 08:30N 41°11' W 008°42'0 0.0
2018-Aug-16 12:10N 41°11' W 008°42'0 0.0
2018-Aug-16 12:00N 41°11' W 008°42'0 1.0
2018-Aug-16 11:31N 41°11' W 008°42'3 6.7
2018-Aug-16 11:00N 41°08' W 008°45'2 0.1
2018-Aug-15 20:41N 41°06' W 008°46'1 6.5
2018-Aug-15 20:29N 41°07' W 008°45'3 6.4
2018-Aug-15 20:00N 41°10' W 008°43'1 0.0
2018-Aug-14 14:06N 41°11' W 008°42'0 0.0
2018-Aug-14 14:00N 41°11' W 008°42'0 0.1
2018-Aug-14 13:30N 41°11' W 008°42'0 0.3
2018-Aug-14 13:00N 41°11' W 008°42'3 5.8
2018-Aug-14 12:30N 41°09' W 008°45'4 0.2
2018-Aug-13 19:38N 41°05' W 008°46'2 7.5
2018-Aug-13 19:24N 41°07' W 008°45'3 7.3
2018-Aug-13 19:00N 41°09' W 008°43'2 3.6
2018-Aug-13 18:30N 41°11' W 008°42'0 0.0
2018-Aug-13 18:00N 41°11' W 008°42'0 0.0
2018-Aug-13 17:30N 41°11' W 008°42'0 0.0
2018-Aug-13 17:00N 41°11' W 008°42'0 0.0
2018-Aug-13 13:52N 41°11' W 008°42'0 0.0
2018-Aug-13 13:30N 41°11' W 008°42'0 0.2
2018-Aug-13 13:00N 41°11' W 008°42'1 2.9
2018-Aug-13 12:30N 41°10' W 008°43'7 0.5
2018-Aug-12 20:52N 41°04' W 008°48'2 6.7
2018-Aug-12 20:30N 41°05' W 008°46'3 6.5
2018-Aug-12 20:00N 41°08' W 008°44'3 5.8
2018-Aug-12 19:30N 41°11' W 008°42'0 0.0
2018-Aug-10 16:37N 41°11' W 008°42'0 0.0
2018-Aug-10 16:30N 41°11' W 008°42'  
Track history (hours):
 
Tides and Currents Weather Stations Pressure Air Temp Water Temp Dewpoint Dewpoint Depression Visibility Wind Speed Wind Dir Waves Ship Positions

Mestre Silva

Last reported at 2018-Aug-20 16:29 UTC. Time now 2018-Aug-20 16:47 UTC.
Position N 41°11' W 008°42'.

Length 12 m.

Type: Fishing. MMSI: 263420860.

Date/timePositionNaut miles runAvg speedWind from/ knotsBaromVisibWave heightAir tempDewpointWater temp
2018-Aug-20 16:29N 41°11' W 008°42'0 0.0
2018-Aug-20 16:03N 41°11' W 008°42'0 0.0
2018-Aug-20 16:00N 41°11' W 008°42'0 0.0
2018-Aug-20 15:29N 41°11' W 008°42'0 0.0
2018-Aug-20 15:03N 41°11' W 008°42'0 0.0
2018-Aug-20 15:00N 41°11' W 008°42'0 0.1
2018-Aug-20 14:30N 41°11' W 008°42'3 5.6
2018-Aug-20 13:55N 41°08' W 008°44'3 0.2
2018-Aug-19 20:29N 41°06' W 008°46'4 7.3
2018-Aug-19 20:00N 41°09' W 008°43'  
2018-Aug-17 11:48N 41°11' W 008°42'0 0.0
2018-Aug-17 11:30N 41°11' W 008°42'0 0.0
2018-Aug-17 11:00N 41°11' W 008°42'0 0.0
2018-Aug-17 10:30N 41°11' W 008°42'0 0.0
2018-Aug-17 10:00N 41°11' W 008°42'0 0.0
2018-Aug-17 09:30N 41°11' W 008°42'0 0.0
2018-Aug-17 09:00N 41°11' W 008°42'0 0.0
2018-Aug-17 08:30N 41°11' W 008°42'0 0.0
2018-Aug-16 12:10N 41°11' W 008°42'0 0.0
2018-Aug-16 12:00N 41°11' W 008°42'0 1.0
2018-Aug-16 11:31N 41°11' W 008°42'3 6.7
2018-Aug-16 11:00N 41°08' W 008°45'2 0.1
2018-Aug-15 20:41N 41°06' W 008°46'1 6.5
2018-Aug-15 20:29N 41°07' W 008°45'3 6.4
2018-Aug-15 20:00N 41°10' W 008°43'1 0.0
2018-Aug-14 14:06N 41°11' W 008°42'0 0.0
2018-Aug-14 14:00N 41°11' W 008°42'0 0.1
2018-Aug-14 13:30N 41°11' W 008°42'0 0.3
2018-Aug-14 13:00N 41°11' W 008°42'3 5.8
2018-Aug-14 12:30N 41°09' W 008°45'4 0.2
2018-Aug-13 19:38N 41°05' W 008°46'2 7.5
2018-Aug-13 19:24N 41°07' W 008°45'3 7.3
2018-Aug-13 19:00N 41°09' W 008°43'2 3.6
2018-Aug-13 18:30N 41°11' W 008°42'0 0.0
2018-Aug-13 18:00N 41°11' W 008°42'0 0.0
2018-Aug-13 17:30N 41°11' W 008°42'0 0.0
2018-Aug-13 17:00N 41°11' W 008°42'0 0.0
2018-Aug-13 13:52N 41°11' W 008°42'0 0.0
2018-Aug-13 13:30N 41°11' W 008°42'0 0.2
2018-Aug-13 13:00N 41°11' W 008°42'1 2.9
2018-Aug-13 12:30N 41°10' W 008°43'7 0.5
2018-Aug-12 20:52N 41°04' W 008°48'2 6.7
2018-Aug-12 20:30N 41°05' W 008°46'3 6.5
2018-Aug-12 20:00N 41°08' W 008°44'3 5.8
2018-Aug-12 19:30N 41°11' W 008°42'0 0.0
2018-Aug-10 16:37N 41°11' W 008°42'0 0.0
2018-Aug-10 16:30N 41°11' W 008°42'  

Dump ship's entire track history